Lebanon, New Hampshire
Current Conditions -  °F | °C
As of 4:53 PM on Monday 20 Oct 2014 (Local Time) from KLEB Reporting Station
Few Clouds Few Clouds  
Wind Chill: 11°   Ceiling: Unl
Heat Index: 11°   Visibility: 10mi
Dew Point:   Wind: 3mph
Humidity: 50%   Direction: 210°SSW
Pressure: 29.92"   Gusts: NA
Location:  43.64°N, 72.25°W
Report Text: KLEB 202053Z 21003KT 10SM FEW090 11/01 A2992 RMK AO2 SLP135 T01110011 56006
Loading
Personal Weather Stations






























Interactive Weather Map
Tropical Storm Tracking
New forecast layout! Learn more

10-Day Weather Forecast

Advertisements
Track Severe Weather on mobile